.
WxDataArchive / Data Records for 2010-09-09
2010-09-08 September 2010 2010-09-10

Data Records for Thursday, 09 September 2010

Time	Temp	Chill	HIndex	Humid	Dewpt	 Wind 	HiWind	WindDir	Rain 	Barom 
-----	----	-----	------	-----	-----	------	------	-------	-----	----- 
00:00	52.9	52.9	52.9	79	46.6	0	0	---	0.00	30.105 
00:05	52.8	52.8	52.8	79	46.5	0	0	---	0.00	30.105 
00:10	52.5	52.5	52.5	80	46.5	0	0	---	0.00	30.105 
00:15	52.3	52.3	52.3	80	46.3	0	0	---	0.00	30.100 
00:20	52.0	52.0	52.0	81	46.4	0	0	---	0.00	30.100 
00:25	51.9	51.9	51.9	81	46.3	0	0	---	0.00	30.100 
00:30	51.6	51.6	51.6	82	46.3	0	0	---	0.00	30.102 
00:35	51.4	51.4	51.4	82	46.1	0	0	---	0.00	30.102 
00:40	51.3	51.3	51.3	83	46.3	0	0	---	0.00	30.102 
00:45	51.1	51.1	51.1	84	46.4	0	0	---	0.00	30.104 
00:50	51.0	51.0	51.0	84	46.3	0	0	---	0.00	30.104 
00:55	51.0	51.0	51.0	85	46.7	0	0	---	0.00	30.104 
01:00	50.8	50.8	50.8	85	46.5	0	0	---	0.00	30.103 
01:05	50.7	50.7	50.7	85	46.4	0	0	---	0.00	30.103 
01:10	50.7	50.7	50.7	85	46.4	0	0	---	0.00	30.103 
01:15	50.5	50.5	50.5	86	46.5	0	0	---	0.00	30.099 
01:20	50.5	50.5	50.5	86	46.5	0	0	---	0.00	30.099 
01:25	50.5	50.5	50.5	86	46.5	0	0	---	0.00	30.099 
01:30	50.7	50.7	50.7	87	47.0	0	0	---	0.00	30.099 
01:35	50.7	50.7	50.7	87	47.0	0	0	---	0.00	30.099 
01:40	50.8	50.8	50.8	87	47.1	0	0	---	0.00	30.099 
01:45	51.0	51.0	51.0	87	47.3	0	0	---	0.00	30.098 
01:50	51.0	51.0	51.0	86	47.0	0	0	---	0.00	30.098 
01:55	50.8	50.8	50.8	86	46.8	0	0	---	0.00	30.098 
02:00	50.8	50.8	50.8	86	46.8	0	0	---	0.00	30.097 
02:05	50.7	50.7	50.7	86	46.7	0	0	---	0.00	30.097 
02:10	50.5	50.5	50.5	86	46.5	0	0	---	0.00	30.097 
02:15	50.4	50.4	50.4	86	46.4	0	0	---	0.00	30.090 
02:20	50.4	50.4	50.4	87	46.7	0	0	---	0.00	30.090 
02:25	50.4	50.4	50.4	87	46.7	0	0	---	0.00	30.090 
02:30	50.2	50.2	50.2	87	46.5	0	0	---	0.00	30.086 
02:35	50.1	50.1	50.1	87	46.4	0	0	---	0.00	30.086 
02:40	50.1	50.1	50.1	87	46.4	0	0	---	0.00	30.086 
02:45	50.1	50.1	50.1	87	46.4	0	0	---	0.00	30.091 
02:50	50.1	50.1	50.1	87	46.4	0	0	---	0.00	30.091 
02:55	50.1	50.1	50.1	87	46.4	0	0	---	0.00	30.091 
03:00	49.9	49.9	49.9	87	46.2	0	0	---	0.00	30.091 
03:05	49.8	49.8	49.8	87	46.1	0	0	---	0.00	30.091 
03:10	49.6	49.6	49.6	87	45.9	0	0	---	0.00	30.091 
03:15	49.5	49.5	49.5	87	45.8	0	0	---	0.00	30.088 
03:20	49.4	49.4	49.4	87	45.7	0	0	---	0.00	30.088 
03:25	49.4	49.4	49.4	87	45.7	0	0	---	0.00	30.088 
03:30	49.2	49.2	49.2	87	45.5	0	0	---	0.00	30.085 
03:35	49.2	49.2	49.2	88	45.8	0	0	---	0.00	30.085 
03:40	49.2	49.2	49.2	87	45.5	0	0	---	0.00	30.085 
03:45	49.1	49.1	49.1	87	45.4	0	0	---	0.00	30.084 
03:50	49.1	49.1	49.1	87	45.4	0	0	---	0.00	30.084 
03:55	48.9	48.9	48.9	87	45.2	0	0	---	0.00	30.084 
04:00	48.6	48.6	48.6	87	44.9	0	0	---	0.00	30.086 
04:05	48.5	48.5	48.5	87	44.8	0	0	---	0.00	30.086 
04:10	48.3	48.3	48.3	88	44.9	0	0	---	0.00	30.086 
04:15	48.0	48.0	48.0	88	44.6	0	0	---	0.00	30.089 
04:20	47.7	47.7	47.7	88	44.3	0	0	---	0.00	30.089 
04:25	47.6	47.6	47.6	88	44.2	0	0	---	0.00	30.089 
04:30	47.3	47.3	47.3	88	43.9	0	0	---	0.00	30.086 
04:35	47.1	47.1	47.1	88	43.7	0	0	---	0.00	30.086 
04:40	47.0	47.0	47.0	89	43.9	0	0	---	0.00	30.086 
04:45	46.8	46.8	46.8	89	43.7	0	0	---	0.00	30.086 
04:50	46.7	46.7	46.7	89	43.6	0	0	---	0.00	30.086 
04:55	46.5	46.5	46.5	90	43.7	0	0	---	0.00	30.086 
05:00	46.4	46.4	46.4	90	43.6	0	0	---	0.00	30.085 
05:05	46.4	46.4	46.4	90	43.6	0	0	---	0.00	30.085 
05:10	46.2	46.2	46.2	90	43.4	0	0	---	0.00	30.085 
05:15	46.1	46.1	46.1	90	43.3	0	0	---	0.00	30.090 
05:20	46.0	46.0	46.0	91	43.5	0	0	---	0.00	30.090 
05:25	45.8	45.8	45.8	91	43.3	0	0	---	0.00	30.090 
05:30	45.7	45.7	45.7	91	43.2	0	0	---	0.00	30.095 
05:35	45.5	45.5	45.5	91	43.0	0	0	---	0.00	30.095 
05:40	45.4	45.4	45.4	91	42.9	0	0	---	0.00	30.095 
05:45	45.4	45.4	45.4	91	42.9	0	0	---	0.00	30.089 
05:50	45.2	45.2	45.2	91	42.7	0	0	---	0.00	30.089 
05:55	45.1	45.1	45.1	92	42.9	0	0	---	0.00	30.089 
06:00	45.1	45.1	45.1	92	42.9	0	0	---	0.00	30.091 
06:05	45.1	45.1	45.1	92	42.9	0	0	---	0.00	30.091 
06:10	44.9	44.9	44.9	92	42.7	0	0	---	0.00	30.091 
06:15	44.9	44.9	44.9	92	42.7	0	0	---	0.00	30.099 
06:20	44.8	44.8	44.8	92	42.6	0	0	---	0.00	30.099 
06:25	44.6	44.6	44.6	92	42.4	0	0	---	0.00	30.099 
06:30	44.6	44.6	44.6	92	42.4	0	0	---	0.00	30.105 
06:35	44.6	44.6	44.6	92	42.4	0	0	---	0.00	30.105 
06:40	44.8	44.8	44.8	92	42.6	0	0	---	0.00	30.105 
06:45	44.8	44.8	44.8	92	42.6	0	0	---	0.00	30.104 
06:50	44.8	44.8	44.8	93	42.9	0	0	---	0.00	30.104 
06:55	44.8	44.8	44.8	93	42.9	0	0	---	0.00	30.104 
07:00	44.8	44.8	44.8	93	42.9	0	0	---	0.00	30.103 
07:05	44.8	44.8	44.8	93	42.9	0	0	---	0.00	30.103 
07:10	44.8	44.8	44.8	93	42.9	0	0	---	0.00	30.103 
07:15	44.8	44.8	44.8	93	42.9	0	0	---	0.00	30.108 
07:20	45.1	45.1	45.1	94	43.5	0	0	---	0.00	30.108 
07:25	45.2	45.2	45.2	93	43.3	0	0	---	0.00	30.108 
07:30	45.2	45.2	45.2	93	43.3	0	0	---	0.00	30.107 
07:35	45.2	45.2	45.2	94	43.6	0	0	---	0.00	30.107 
07:40	45.2	45.2	45.2	94	43.6	0	0	---	0.00	30.107 
07:45	45.2	45.2	45.2	94	43.6	0	0	---	0.00	30.105 
07:50	45.4	45.4	45.4	94	43.8	0	0	---	0.00	30.105 
07:55	45.7	45.7	45.7	94	44.1	0	0	---	0.00	30.105 
08:00	46.2	46.2	46.2	95	44.8	0	0	---	0.00	30.109 
08:05	46.5	46.5	46.5	95	45.1	0	0	---	0.00	30.109 
08:10	47.1	47.1	47.1	95	45.7	0	0	---	0.00	30.109 
08:15	47.7	47.7	47.7	95	46.3	0	0	---	0.00	30.111 
08:20	48.3	48.3	48.3	95	46.9	0	0	---	0.00	30.111 
08:25	48.9	48.9	48.9	94	47.2	0	0	---	0.00	30.111 
08:30	49.4	49.4	49.4	94	47.7	0	0	---	0.00	30.109 
08:35	49.9	49.9	49.9	93	48.0	0	0	---	0.00	30.109 
08:40	50.4	50.4	50.4	93	48.5	0	1	292	0.00	30.109 
08:45	50.8	50.8	50.8	92	48.6	0	0	---	0.00	30.117 
08:50	51.3	51.3	51.3	91	48.8	0	0	---	0.00	30.117 
08:55	51.6	51.6	51.6	89	48.5	0	1	292	0.00	30.117 
09:00	52.2	52.2	52.2	86	48.1	0	1	292	0.00	30.119 
09:05	52.8	52.8	52.8	84	48.1	0	1	292	0.00	30.119 
09:10	53.3	53.3	53.3	83	48.3	0	1	292	0.00	30.119 
09:15	53.9	53.9	53.9	81	48.2	0	0	---	0.00	30.123 
09:20	54.5	54.5	54.5	79	48.1	0	1	292	0.00	30.123 
09:25	55.1	55.1	55.1	78	48.4	0	1	292	0.00	30.123 
09:30	55.6	55.6	55.6	75	47.8	0	1	292	0.00	30.119 
09:35	56.0	56.0	56.0	75	48.2	0	1	292	0.00	30.119 
09:40	56.5	56.5	56.5	73	47.9	0	1	292	0.00	30.119 
09:45	56.9	56.9	56.9	72	48.0	0	2	292	0.00	30.120 
09:50	57.2	57.2	57.2	71	47.9	1	3	292	0.00	30.120 
09:55	57.5	57.5	57.5	69	47.4	0	3	292	0.00	30.120 
10:00	58.1	58.1	58.1	68	47.6	0	1	292	0.00	30.122 
10:05	58.9	58.9	58.9	65	47.2	0	3	292	0.00	30.122 
10:10	59.6	59.6	59.6	62	46.6	0	3	112	0.00	30.122 
10:15	60.5	60.5	60.5	63	47.8	0	2	112	0.00	30.120 
10:20	61.3	61.3	61.3	59	46.8	1	3	112	0.00	30.120 
10:25	61.6	61.6	61.6	57	46.2	0	3	112	0.00	30.120 
10:30	62.3	62.3	62.3	57	46.9	1	4	135	0.00	30.119 
10:35	62.7	62.7	62.7	53	45.3	1	6	90	0.00	30.119 
10:40	62.9	62.9	62.9	52	45.0	2	5	90	0.00	30.119 
10:45	63.2	63.2	63.2	51	44.8	1	4	90	0.00	30.114 
10:50	63.7	63.7	63.7	54	46.7	1	6	90	0.00	30.114 
10:55	64.2	64.2	64.2	51	45.7	1	4	90	0.00	30.114 
11:00	64.3	64.3	64.3	50	45.3	0	2	112	0.00	30.115 
11:05	64.3	64.3	64.3	50	45.3	0	3	112	0.00	30.115 
11:10	64.8	64.8	64.8	51	46.2	1	4	112	0.00	30.115 
11:15	65.2	65.2	65.2	50	46.1	1	4	112	0.00	30.114 
11:20	65.3	65.3	65.3	50	46.2	1	4	292	0.00	30.114 
11:25	65.3	65.3	65.3	51	46.7	1	4	135	0.00	30.114 
11:30	65.3	65.3	65.3	50	46.2	1	5	292	0.00	30.117 
11:35	65.3	65.3	65.3	49	45.6	1	5	315	0.00	30.117 
11:40	65.5	65.5	65.5	50	46.4	1	3	0	0.00	30.117 
11:45	66.1	66.1	66.1	49	46.4	1	4	112	0.00	30.115 
11:50	66.4	66.4	66.4	48	46.1	2	5	112	0.00	30.115 
11:55	66.6	66.6	66.6	49	46.8	1	7	90	0.00	30.115 
12:00	66.6	66.6	66.6	49	46.8	1	4	68	0.00	30.112 
12:05	66.8	66.8	66.8	48	46.5	1	3	90	0.00	30.112 
12:10	66.8	66.8	66.8	48	46.5	0	3	270	0.00	30.112 
12:15	66.8	66.8	66.8	48	46.5	1	3	270	0.00	30.107 
12:20	66.9	66.9	66.9	47	46.0	1	3	292	0.00	30.107 
12:25	67.1	67.1	67.1	48	46.7	1	3	292	0.00	30.107 
12:30	67.3	67.3	67.3	47	46.4	1	3	112	0.00	30.101 
12:35	66.9	66.9	66.9	47	46.0	1	5	315	0.00	30.101 
12:40	66.9	66.9	66.9	47	46.0	0	1	315	0.00	30.101 
12:45	67.3	67.3	67.3	47	46.4	1	3	315	0.00	30.100 
12:50	67.3	67.3	67.3	48	46.9	1	3	315	0.00	30.100 
12:55	67.4	67.4	67.4	46	45.9	1	3	90	0.00	30.100 
13:00	67.9	67.9	67.9	48	47.5	1	7	90	0.00	30.099 
13:05	67.9	67.9	67.9	46	46.3	1	4	315	0.00	30.099 
13:10	67.9	67.9	67.9	45	45.8	1	5	270	0.00	30.099 
13:15	67.6	67.6	67.6	46	46.1	3	5	270	0.00	30.098 
13:20	67.6	67.6	67.6	46	46.1	1	4	270	0.00	30.098 
13:25	67.9	67.9	67.9	46	46.3	1	3	270	0.00	30.098 
13:30	68.3	68.3	68.3	47	47.3	1	3	270	0.00	30.093 
13:35	68.6	68.6	68.6	44	45.8	1	3	90	0.00	30.093 
13:40	68.4	68.4	68.4	45	46.2	2	5	338	0.00	30.093 
13:45	68.8	68.8	68.8	46	47.2	1	3	315	0.00	30.093 
13:50	68.8	68.8	68.8	43	45.4	1	3	315	0.00	30.093 
13:55	68.9	68.9	68.9	45	46.7	1	3	315	0.00	30.093 
14:00	68.8	68.8	68.8	44	46.0	1	5	315	0.00	30.088 
14:05	68.9	68.9	68.9	46	47.3	1	3	315	0.00	30.088 
14:10	69.6	69.6	69.6	45	47.3	1	4	22	0.00	30.088 
14:15	69.9	69.9	69.9	45	47.6	2	5	112	0.00	30.083 
14:20	69.8	69.8	69.8	43	46.3	1	3	315	0.00	30.083 
14:25	69.8	69.8	69.8	44	46.9	1	4	292	0.00	30.083 
14:30	69.8	69.8	69.8	42	45.7	1	3	292	0.00	30.079 
14:35	69.1	69.1	69.1	42	45.0	2	6	292	0.00	30.079 
14:40	68.9	68.9	68.9	44	46.1	2	5	292	0.00	30.079 
14:45	69.4	69.4	69.4	46	47.7	0	2	292	0.00	30.071 
14:50	70.1	70.1	70.1	42	45.9	0	2	292	0.00	30.071 
14:55	70.4	70.4	70.4	43	46.8	1	6	270	0.00	30.071 
15:00	70.1	70.1	70.1	43	46.6	2	5	112	0.00	30.064 
15:05	70.1	70.1	70.1	42	45.9	1	6	135	0.00	30.064 
15:10	70.1	70.1	70.1	44	47.2	1	2	338	0.00	30.064 
15:15	70.4	70.4	70.4	44	47.4	0	2	112	0.00	30.059 
15:20	70.6	70.6	70.6	41	45.7	1	2	45	0.00	30.059 
15:25	70.9	70.9	70.9	43	47.3	1	3	315	0.00	30.059 
15:30	71.1	71.1	71.1	41	46.2	1	3	270	0.00	30.053 
15:35	70.8	70.8	70.8	41	45.9	2	4	270	0.00	30.053 
15:40	70.6	70.6	70.6	42	46.4	2	3	270	0.00	30.053 
15:45	70.8	70.8	70.8	41	45.9	1	5	270	0.00	30.051 
15:50	70.8	70.8	70.8	41	45.9	1	4	292	0.00	30.051 
15:55	70.8	70.8	70.8	42	46.6	0	2	292	0.00	30.051 
16:00	71.1	71.1	71.1	40	45.5	1	3	292	0.00	30.045 
16:05	70.9	70.9	70.9	42	46.6	1	3	338	0.00	30.045 
16:10	70.6	70.6	70.6	42	46.4	1	3	315	0.00	30.045 
16:15	70.6	70.6	70.6	43	47.0	0	2	68	0.00	30.041 
16:20	70.8	70.8	70.8	41	45.9	1	3	292	0.00	30.041 
16:25	70.6	70.6	70.6	42	46.4	0	2	292	0.00	30.041 
16:30	70.4	70.4	70.4	41	45.6	1	3	292	0.00	30.040 
16:35	70.3	70.3	70.3	42	46.1	1	4	292	0.00	30.040 
16:40	70.6	70.6	70.6	42	46.4	0	3	292	0.00	30.040 
16:45	70.8	70.8	70.8	41	45.9	0	2	292	0.00	30.037 
16:50	70.8	70.8	70.8	41	45.9	0	2	270	0.00	30.037 
16:55	70.8	70.8	70.8	41	45.9	0	1	292	0.00	30.037 
17:00	70.8	70.8	70.8	41	45.9	0	3	338	0.00	30.036 
17:05	70.8	70.8	70.8	41	45.9	1	3	112	0.00	30.036 
17:10	70.9	70.9	70.9	41	46.0	1	3	270	0.00	30.036 
17:15	70.8	70.8	70.8	41	45.9	1	3	270	0.00	30.039 
17:20	70.8	70.8	70.8	41	45.9	0	2	22	0.00	30.039 
17:25	70.8	70.8	70.8	42	46.6	1	4	22	0.00	30.039 
17:30	70.9	70.9	70.9	41	46.0	0	2	315	0.00	30.038 
17:35	70.8	70.8	70.8	42	46.6	0	2	315	0.00	30.038 
17:40	70.8	70.8	70.8	42	46.6	0	1	90	0.00	30.038 
17:45	70.6	70.6	70.6	43	47.0	1	4	90	0.00	30.037 
17:50	70.6	70.6	70.6	42	46.4	0	2	90	0.00	30.037 
17:55	70.4	70.4	70.4	43	46.8	1	3	315	0.00	30.037 
18:00	70.4	70.4	70.4	42	46.2	0	1	292	0.00	30.036 
18:05	70.4	70.4	70.4	43	46.8	0	2	292	0.00	30.036 
18:10	70.3	70.3	70.3	42	46.1	1	2	315	0.00	30.036 
18:15	70.1	70.1	70.1	42	45.9	0	1	315	0.00	30.037 
18:20	69.9	69.9	69.9	43	46.4	0	2	315	0.00	30.037 
18:25	69.8	69.8	69.8	44	46.9	0	1	315	0.00	30.037 
18:30	69.6	69.6	69.6	44	46.7	0	1	315	0.00	30.032 
18:35	69.4	69.4	69.4	45	47.1	0	4	112	0.00	30.032 
18:40	69.4	69.4	69.4	44	46.5	0	1	112	0.00	30.032 
18:45	69.3	69.3	69.3	44	46.4	0	1	112	0.00	30.032 
18:50	69.3	69.3	69.3	46	47.6	0	1	112	0.00	30.032 
18:55	69.1	69.1	69.1	46	47.4	0	0	---	0.00	30.032 
19:00	68.9	68.9	68.9	45	46.7	0	2	112	0.00	30.034 
19:05	68.6	68.6	68.6	45	46.4	0	1	112	0.00	30.034 
19:10	68.6	68.6	68.6	46	47.0	0	1	112	0.00	30.034 
19:15	68.4	68.4	68.4	46	46.8	0	2	135	0.00	30.034 
19:20	68.1	68.1	68.1	47	47.1	0	0	---	0.00	30.034 
19:25	67.9	67.9	67.9	48	47.5	0	1	135	0.00	30.034 
19:30	67.6	67.6	67.6	47	46.6	0	1	135	0.00	30.037 
19:35	67.4	67.4	67.4	48	47.0	0	0	---	0.00	30.037 
19:40	67.3	67.3	67.3	49	47.5	0	0	---	0.00	30.037 
19:45	66.8	66.8	66.8	50	47.6	0	0	---	0.00	30.033 
19:50	66.4	66.4	66.4	51	47.7	0	0	---	0.00	30.033 
19:55	66.0	66.0	66.0	51	47.3	0	0	---	0.00	30.033 
20:00	65.6	65.6	65.6	52	47.5	0	0	---	0.00	30.037 
20:05	65.2	65.2	65.2	53	47.6	0	0	---	0.00	30.037 
20:10	64.8	64.8	64.8	54	47.8	0	0	---	0.00	30.037 
20:15	64.3	64.3	64.3	54	47.3	0	0	---	0.00	30.038 
20:20	64.0	64.0	64.0	55	47.5	0	0	---	0.00	30.038 
20:25	63.7	63.7	63.7	56	47.7	0	0	---	0.00	30.038 
20:30	63.5	63.5	63.5	56	47.5	0	0	---	0.00	30.038 
20:35	63.2	63.2	63.2	57	47.7	0	0	---	0.00	30.038 
20:40	62.7	62.7	62.7	58	47.7	0	0	---	0.00	30.038 
20:45	62.4	62.4	62.4	59	47.9	0	0	---	0.00	30.039 
20:50	62.1	62.1	62.1	60	48.0	0	0	---	0.00	30.039 
20:55	61.6	61.6	61.6	61	48.0	0	0	---	0.00	30.039 
21:00	61.2	61.2	61.2	62	48.1	0	0	---	0.00	30.040 
21:05	60.9	60.9	60.9	63	48.2	0	0	---	0.00	30.040 
21:10	60.4	60.4	60.4	64	48.2	0	0	---	0.00	30.040 
21:15	59.9	59.9	59.9	65	48.1	0	0	---	0.00	30.036 
21:20	59.6	59.6	59.6	66	48.2	0	0	---	0.00	30.036 
21:25	59.5	59.5	59.5	66	48.1	0	0	---	0.00	30.036 
21:30	59.3	59.3	59.3	66	47.9	0	0	---	0.00	30.038 
21:35	59.2	59.2	59.2	66	47.8	0	0	---	0.00	30.038 
21:40	59.0	59.0	59.0	66	47.7	0	0	---	0.00	30.038 
21:45	59.0	59.0	59.0	67	48.1	0	0	---	0.00	30.041 
21:50	58.9	58.9	58.9	67	48.0	0	0	---	0.00	30.041 
21:55	58.7	58.7	58.7	68	48.2	0	0	---	0.00	30.041 
22:00	58.6	58.6	58.6	68	48.1	0	0	---	0.00	30.040 
22:05	58.4	58.4	58.4	69	48.3	0	0	---	0.00	30.040 
22:10	58.3	58.3	58.3	69	48.2	0	0	---	0.00	30.040 
22:15	58.0	58.0	58.0	69	47.9	0	0	---	0.00	30.035 
22:20	57.8	57.8	57.8	70	48.1	0	0	---	0.00	30.035 
22:25	57.6	57.6	57.6	70	47.9	0	0	---	0.00	30.035 
22:30	57.5	57.5	57.5	71	48.2	0	0	---	0.00	30.034 
22:35	57.3	57.3	57.3	71	48.0	0	0	---	0.00	30.034 
22:40	57.0	57.0	57.0	72	48.1	0	0	---	0.00	30.034 
22:45	56.9	56.9	56.9	72	48.0	0	0	---	0.00	30.036 
22:50	56.7	56.7	56.7	73	48.1	0	0	---	0.00	30.036 
22:55	56.6	56.6	56.6	73	48.0	0	0	---	0.00	30.036 
23:00	56.5	56.5	56.5	73	47.9	0	0	---	0.00	30.036 
23:05	56.3	56.3	56.3	74	48.1	0	0	---	0.00	30.036 
23:10	56.2	56.2	56.2	74	48.0	0	0	---	0.00	30.036 
23:15	56.0	56.0	56.0	75	48.2	0	0	---	0.00	30.033 
23:20	55.7	55.7	55.7	75	47.9	0	0	---	0.00	30.033 
23:25	55.6	55.6	55.6	76	48.2	0	0	---	0.00	30.033 
23:30	55.3	55.3	55.3	77	48.2	0	0	---	0.00	30.034 
23:35	55.0	55.0	55.0	78	48.3	0	0	---	0.00	30.034 
23:40	54.7	54.7	54.7	78	48.0	0	0	---	0.00	30.034 
23:45	54.5	54.5	54.5	79	48.1	0	0	---	0.00	30.035 
23:50	54.2	54.2	54.2	79	47.8	0	0	---	0.00	30.035 
23:55	54.1	54.1	54.1	80	48.1	0	0	---	0.00	30.035 

CoCoRaHS
IN-AL-39
A2 Web Hosting
Creative Commons License
GoDaddy
search engine by freefind advanced

loaded 2018-11-15 03:51:45 • last modified 2010-11-18 10:43:29
Privacy PolicyDisclaimer
• wx.awcolley.com is powered by PmWiki v.2002016 •
• all content (unless otherwise noted) © 2018 A W Colley